JBU444 KPBI-KISP
Flight info
| Callsign | JBU444 |
|---|---|
| Flight time | 2h 27m |
| Altitude | 35000 |
| Route | SLIDZ3 LENDS PELCN Y309 FLRDA SAGGY CHIEZ Q161 KALDA SARDI1 |
| Aircraft | A320/M-VGDW/C |
Departure
| Time | 2026-04-28 01:35 |
|---|---|
| Airport | Palm Beach International Airport (KPBI) |
Arrival
| Time | 2026-04-28 04:03 |
|---|---|
| Airport | Long Island MacArthur Airport (KISP) |
| Time | Latitude | Longitude | Altitude | Speed | Heading |
|---|---|---|---|---|---|
| 2026-04-28 00:57 | 26.68572 | -80.08863 | 26 ft | 0 kts | 273° |
| 2026-04-28 01:24 | 26.68571 | -80.08859 | 25 ft | 3 kts | 273° |
| 2026-04-28 01:24 | 26.68570 | -80.08829 | 27 ft | 4 kts | 273° |
| 2026-04-28 01:24 | 26.68569 | -80.08799 | 29 ft | 4 kts | 266° |
| 2026-04-28 01:25 | 26.68574 | -80.08772 | 26 ft | 4 kts | 219° |
| 2026-04-28 01:25 | 26.68581 | -80.08766 | 30 ft | 0 kts | 183° |
| 2026-04-28 01:30 | 26.68560 | -80.08767 | 31 ft | 8 kts | 183° |
| 2026-04-28 01:30 | 26.68496 | -80.08771 | 26 ft | 8 kts | 182° |
| 2026-04-28 01:31 | 26.68437 | -80.08747 | 26 ft | 13 kts | 124° |
| 2026-04-28 01:31 | 26.68347 | -80.08742 | 25 ft | 14 kts | 233° |
| 2026-04-28 01:31 | 26.68345 | -80.08855 | 25 ft | 15 kts | 272° |
| 2026-04-28 01:31 | 26.68350 | -80.08979 | 30 ft | 17 kts | 273° |
| 2026-04-28 01:32 | 26.68357 | -80.09117 | 25 ft | 19 kts | 272° |
| 2026-04-28 01:32 | 26.68364 | -80.09268 | 25 ft | 20 kts | 272° |
| 2026-04-28 01:32 | 26.68372 | -80.09451 | 25 ft | 28 kts | 273° |
| 2026-04-28 01:32 | 26.68383 | -80.09695 | 27 ft | 33 kts | 273° |
| 2026-04-28 01:33 | 26.68394 | -80.09934 | 25 ft | 31 kts | 273° |
| 2026-04-28 01:33 | 26.68405 | -80.10176 | 25 ft | 32 kts | 273° |
| 2026-04-28 01:33 | 26.68412 | -80.10398 | 25 ft | 20 kts | 272° |
| 2026-04-28 01:33 | 26.68420 | -80.10558 | 29 ft | 21 kts | 273° |
| 2026-04-28 01:34 | 26.68428 | -80.10730 | 25 ft | 20 kts | 272° |
| 2026-04-28 01:34 | 26.68408 | -80.10818 | 28 ft | 11 kts | 212° |
| 2026-04-28 01:34 | 26.68325 | -80.10817 | 26 ft | 7 kts | 144° |
| 2026-04-28 01:34 | 26.68318 | -80.10768 | 25 ft | 10 kts | 93° |
| 2026-04-28 01:35 | 26.68305 | -80.10449 | 26 ft | 74 kts | 93° |
| 2026-04-28 01:35 | 26.68270 | -80.09657 | 26 ft | 127 kts | 92° |
| 2026-04-28 01:35 | 26.68218 | -80.08503 | 54 ft | 166 kts | 92° |
| 2026-04-28 01:35 | 26.68100 | -80.07263 | 681 ft | 159 kts | 92° |
| 2026-04-28 01:36 | 26.68007 | -80.06048 | 1303 ft | 155 kts | 85° |
| 2026-04-28 01:36 | 26.68201 | -80.04856 | 1681 ft | 161 kts | 65° |
| 2026-04-28 01:36 | 26.68785 | -80.03711 | 1917 ft | 181 kts | 57° |
| 2026-04-28 01:36 | 26.69470 | -80.02440 | 2164 ft | 202 kts | 60° |
| 2026-04-28 01:37 | 26.70161 | -80.00942 | 2325 ft | 232 kts | 62° |
| 2026-04-28 01:37 | 26.70919 | -79.99286 | 2912 ft | 244 kts | 60° |
| 2026-04-28 01:37 | 26.71727 | -79.97568 | 3584 ft | 255 kts | 60° |
| 2026-04-28 01:37 | 26.72703 | -79.95935 | 4515 ft | 249 kts | 48° |
| 2026-04-28 01:38 | 26.73846 | -79.94528 | 5573 ft | 242 kts | 45° |
| 2026-04-28 01:38 | 26.75023 | -79.93142 | 6269 ft | 250 kts | 44° |
| 2026-04-28 01:38 | 26.76233 | -79.91687 | 6896 ft | 260 kts | 47° |
| 2026-04-28 01:38 | 26.77425 | -79.90117 | 7508 ft | 270 kts | 47° |
| 2026-04-28 01:39 | 26.78673 | -79.88466 | 7991 ft | 283 kts | 47° |
| 2026-04-28 01:39 | 26.79952 | -79.86780 | 8803 ft | 283 kts | 47° |
| 2026-04-28 01:39 | 26.81206 | -79.85106 | 9715 ft | 279 kts | 48° |
| 2026-04-28 01:39 | 26.82452 | -79.83424 | 10319 ft | 288 kts | 46° |
| 2026-04-28 01:40 | 26.83816 | -79.81706 | 10483 ft | 310 kts | 45° |
| 2026-04-28 01:40 | 26.85342 | -79.79834 | 10611 ft | 333 kts | 45° |
| 2026-04-28 01:40 | 26.86928 | -79.77875 | 10775 ft | 352 kts | 46° |
| 2026-04-28 01:40 | 26.88572 | -79.75802 | 11254 ft | 360 kts | 46° |
| 2026-04-28 01:41 | 26.90226 | -79.73673 | 11852 ft | 363 kts | 47° |
| 2026-04-28 01:41 | 26.91879 | -79.71521 | 12464 ft | 366 kts | 46° |
| 2026-04-28 01:41 | 26.93667 | -79.69490 | 13065 ft | 367 kts | 41° |
| 2026-04-28 01:41 | 26.95530 | -79.67515 | 13673 ft | 370 kts | 41° |
| 2026-04-28 01:42 | 26.97410 | -79.65532 | 14209 ft | 372 kts | 41° |
| 2026-04-28 01:42 | 26.99305 | -79.63537 | 14746 ft | 375 kts | 41° |
| 2026-04-28 01:42 | 27.01211 | -79.61528 | 15271 ft | 377 kts | 41° |
| 2026-04-28 01:42 | 27.03128 | -79.59504 | 15797 ft | 380 kts | 41° |
| 2026-04-28 01:43 | 27.05054 | -79.57471 | 16335 ft | 382 kts | 41° |
| 2026-04-28 01:43 | 27.06999 | -79.55422 | 16878 ft | 385 kts | 41° |
| 2026-04-28 01:43 | 27.08961 | -79.53353 | 17432 ft | 387 kts | 41° |
| 2026-04-28 01:43 | 27.10926 | -79.51277 | 17991 ft | 390 kts | 41° |
| 2026-04-28 01:44 | 27.12906 | -79.49178 | 18544 ft | 393 kts | 41° |
| 2026-04-28 01:44 | 27.14900 | -79.47063 | 19042 ft | 396 kts | 41° |
| 2026-04-28 01:44 | 27.16910 | -79.44933 | 19553 ft | 399 kts | 41° |
| 2026-04-28 01:44 | 27.18935 | -79.42787 | 20059 ft | 402 kts | 41° |
| 2026-04-28 01:45 | 27.20974 | -79.40622 | 20546 ft | 405 kts | 41° |
| 2026-04-28 01:45 | 27.23031 | -79.38435 | 21016 ft | 408 kts | 41° |
| 2026-04-28 01:45 | 27.25067 | -79.36272 | 21459 ft | 411 kts | 41° |
| 2026-04-28 01:45 | 27.27149 | -79.34060 | 21896 ft | 413 kts | 41° |
| 2026-04-28 01:46 | 27.29247 | -79.31834 | 22308 ft | 416 kts | 41° |
| 2026-04-28 01:46 | 27.31360 | -79.29595 | 22719 ft | 419 kts | 41° |
| 2026-04-28 01:46 | 27.33485 | -79.27342 | 23146 ft | 421 kts | 41° |
| 2026-04-28 01:46 | 27.35626 | -79.25066 | 23545 ft | 424 kts | 41° |
| 2026-04-28 01:47 | 27.37773 | -79.22779 | 23893 ft | 426 kts | 41° |
| 2026-04-28 01:47 | 27.39926 | -79.20483 | 24232 ft | 428 kts | 41° |
| 2026-04-28 01:47 | 27.42101 | -79.18165 | 24546 ft | 431 kts | 41° |
| 2026-04-28 01:47 | 27.44276 | -79.15844 | 24854 ft | 433 kts | 41° |
| 2026-04-28 01:48 | 27.46466 | -79.13503 | 25161 ft | 435 kts | 41° |
| 2026-04-28 01:48 | 27.48669 | -79.11151 | 25464 ft | 437 kts | 41° |
| 2026-04-28 01:48 | 27.50883 | -79.08787 | 25763 ft | 440 kts | 41° |
| 2026-04-28 01:48 | 27.53106 | -79.06408 | 26071 ft | 442 kts | 41° |
| 2026-04-28 01:49 | 27.55339 | -79.04015 | 26375 ft | 444 kts | 41° |
| 2026-04-28 01:49 | 27.57584 | -79.01609 | 26682 ft | 446 kts | 41° |
| 2026-04-28 01:49 | 27.59811 | -78.99225 | 26969 ft | 449 kts | 41° |
| 2026-04-28 01:49 | 27.62080 | -78.96795 | 27261 ft | 451 kts | 41° |
| 2026-04-28 01:50 | 27.64404 | -78.94436 | 27637 ft | 449 kts | 36° |
| 2026-04-28 01:50 | 27.67006 | -78.92515 | 28053 ft | 446 kts | 26° |
| 2026-04-28 01:50 | 27.69848 | -78.91132 | 28461 ft | 443 kts | 16° |
| 2026-04-28 01:50 | 27.72835 | -78.90322 | 28854 ft | 441 kts | 6° |
| 2026-04-28 01:51 | 27.75876 | -78.89903 | 29254 ft | 440 kts | 5° |
| 2026-04-28 01:51 | 27.78917 | -78.89489 | 29670 ft | 440 kts | 5° |
| 2026-04-28 01:51 | 27.81956 | -78.89067 | 30084 ft | 440 kts | 5° |
| 2026-04-28 01:51 | 27.84993 | -78.88637 | 30450 ft | 440 kts | 5° |
| 2026-04-28 01:52 | 27.88027 | -78.88206 | 30831 ft | 439 kts | 5° |
| 2026-04-28 01:52 | 27.91050 | -78.87775 | 31214 ft | 437 kts | 5° |
| 2026-04-28 01:52 | 27.94064 | -78.87346 | 31615 ft | 436 kts | 5° |
| 2026-04-28 01:52 | 27.97026 | -78.86925 | 32017 ft | 434 kts | 5° |
| 2026-04-28 01:53 | 28.00016 | -78.86504 | 32422 ft | 432 kts | 5° |
| 2026-04-28 01:53 | 28.02996 | -78.86089 | 32831 ft | 431 kts | 6° |
| 2026-04-28 01:53 | 28.05966 | -78.85673 | 33244 ft | 429 kts | 6° |
| 2026-04-28 01:53 | 28.08924 | -78.85256 | 33667 ft | 428 kts | 6° |
| 2026-04-28 01:54 | 28.11872 | -78.84837 | 34080 ft | 426 kts | 6° |
| 2026-04-28 01:54 | 28.14808 | -78.84418 | 34430 ft | 425 kts | 6° |
| 2026-04-28 01:54 | 28.17738 | -78.84001 | 34725 ft | 424 kts | 6° |
| 2026-04-28 01:54 | 28.20665 | -78.83585 | 35004 ft | 424 kts | 5° |
| 2026-04-28 01:55 | 28.23597 | -78.83171 | 35108 ft | 426 kts | 5° |
| 2026-04-28 01:55 | 28.26559 | -78.82754 | 35129 ft | 432 kts | 5° |
| 2026-04-28 01:55 | 28.32578 | -78.81909 | 35128 ft | 438 kts | 6° |
| 2026-04-28 01:56 | 28.38590 | -78.81059 | 35130 ft | 439 kts | 6° |
| 2026-04-28 01:56 | 28.44646 | -78.80191 | 35130 ft | 438 kts | 6° |
| 2026-04-28 01:57 | 28.50703 | -78.79340 | 35132 ft | 438 kts | 6° |
| 2026-04-28 01:57 | 28.56760 | -78.78480 | 35137 ft | 439 kts | 6° |
| 2026-04-28 01:58 | 28.62819 | -78.77613 | 35138 ft | 439 kts | 6° |
| 2026-04-28 01:58 | 28.68877 | -78.76744 | 35143 ft | 439 kts | 6° |
| 2026-04-28 01:59 | 28.74935 | -78.75872 | 35146 ft | 439 kts | 6° |
| 2026-04-28 01:59 | 28.80952 | -78.75012 | 35147 ft | 439 kts | 6° |
| 2026-04-28 02:00 | 28.87010 | -78.74149 | 35150 ft | 439 kts | 6° |
| 2026-04-28 02:00 | 28.93067 | -78.73285 | 35153 ft | 438 kts | 6° |
| 2026-04-28 02:01 | 28.99120 | -78.72417 | 35151 ft | 438 kts | 6° |
| 2026-04-28 02:01 | 29.05171 | -78.71554 | 35158 ft | 438 kts | 6° |
| 2026-04-28 02:02 | 29.11222 | -78.70683 | 35164 ft | 438 kts | 6° |
| 2026-04-28 02:02 | 29.17270 | -78.69810 | 35164 ft | 438 kts | 6° |
| 2026-04-28 02:03 | 29.23316 | -78.68934 | 35163 ft | 438 kts | 6° |
| 2026-04-28 02:03 | 29.29361 | -78.68060 | 35164 ft | 438 kts | 6° |
| 2026-04-28 02:04 | 29.35362 | -78.67184 | 35164 ft | 438 kts | 8° |
| 2026-04-28 02:04 | 29.41241 | -78.65342 | 35168 ft | 439 kts | 16° |
| 2026-04-28 02:05 | 29.46084 | -78.63593 | 35165 ft | 439 kts | 16° |
| 2026-04-28 02:05 | 29.51909 | -78.61492 | 35164 ft | 439 kts | 16° |
| 2026-04-28 02:06 | 29.57727 | -78.59393 | 35172 ft | 438 kts | 16° |
| 2026-04-28 02:06 | 29.63546 | -78.57284 | 35171 ft | 438 kts | 16° |
| 2026-04-28 02:07 | 29.69362 | -78.55175 | 35172 ft | 438 kts | 16° |
| 2026-04-28 02:07 | 29.75176 | -78.53068 | 35175 ft | 438 kts | 16° |
| 2026-04-28 02:08 | 29.80986 | -78.50954 | 35177 ft | 438 kts | 16° |
| 2026-04-28 02:08 | 29.86753 | -78.48854 | 35177 ft | 437 kts | 16° |
| 2026-04-28 02:09 | 29.92558 | -78.46742 | 35179 ft | 437 kts | 16° |
| 2026-04-28 02:09 | 29.98361 | -78.44636 | 35183 ft | 437 kts | 16° |
| 2026-04-28 02:10 | 30.04161 | -78.42521 | 35181 ft | 437 kts | 16° |
| 2026-04-28 02:10 | 30.09956 | -78.40395 | 35181 ft | 437 kts | 16° |
| 2026-04-28 02:11 | 30.15836 | -78.38733 | 35187 ft | 434 kts | 6° |
| 2026-04-28 02:11 | 30.21835 | -78.37846 | 35179 ft | 435 kts | 6° |
| 2026-04-28 02:12 | 30.27834 | -78.36952 | 35184 ft | 435 kts | 6° |
| 2026-04-28 02:12 | 30.33791 | -78.36057 | 35182 ft | 434 kts | 6° |
| 2026-04-28 02:13 | 30.39791 | -78.35165 | 35187 ft | 434 kts | 6° |
| 2026-04-28 02:13 | 30.45770 | -78.34113 | 35189 ft | 435 kts | 9° |
| 2026-04-28 02:14 | 30.51689 | -78.32689 | 35191 ft | 435 kts | 11° |
| 2026-04-28 02:14 | 30.57602 | -78.31192 | 35194 ft | 435 kts | 11° |
| 2026-04-28 02:15 | 30.66488 | -78.29085 | 35192 ft | 434 kts | 10° |
| 2026-04-28 02:16 | 30.72420 | -78.27720 | 35197 ft | 434 kts | 10° |
| 2026-04-28 02:16 | 30.78341 | -78.26341 | 35197 ft | 434 kts | 10° |
| 2026-04-28 02:17 | 30.84255 | -78.24952 | 35198 ft | 434 kts | 10° |
| 2026-04-28 02:17 | 30.90139 | -78.23565 | 35201 ft | 434 kts | 11° |
| 2026-04-28 02:18 | 30.96052 | -78.22175 | 35201 ft | 434 kts | 10° |
| 2026-04-28 02:18 | 31.01986 | -78.20852 | 35200 ft | 434 kts | 9° |
| 2026-04-28 02:19 | 31.07931 | -78.19555 | 35201 ft | 434 kts | 9° |
| 2026-04-28 02:19 | 31.13868 | -78.18245 | 35202 ft | 434 kts | 10° |
| 2026-04-28 02:20 | 31.19801 | -78.16920 | 35200 ft | 434 kts | 10° |
| 2026-04-28 02:20 | 31.25729 | -78.15597 | 35206 ft | 434 kts | 10° |
| 2026-04-28 02:21 | 31.31665 | -78.14272 | 35205 ft | 434 kts | 10° |
| 2026-04-28 02:21 | 31.37568 | -78.12955 | 35208 ft | 434 kts | 10° |
| 2026-04-28 02:22 | 31.43503 | -78.11631 | 35209 ft | 434 kts | 9° |
| 2026-04-28 02:22 | 31.49464 | -78.10527 | 35213 ft | 433 kts | 7° |
| 2026-04-28 02:23 | 31.55439 | -78.09589 | 35212 ft | 433 kts | 7° |
| 2026-04-28 02:23 | 31.61413 | -78.08617 | 35212 ft | 433 kts | 7° |
| 2026-04-28 02:24 | 31.67382 | -78.07595 | 35216 ft | 433 kts | 7° |
| 2026-04-28 02:24 | 31.73342 | -78.06554 | 35216 ft | 433 kts | 7° |
| 2026-04-28 02:25 | 31.79301 | -78.05525 | 35217 ft | 433 kts | 7° |
| 2026-04-28 02:25 | 31.85222 | -78.04517 | 35219 ft | 433 kts | 7° |
| 2026-04-28 02:26 | 31.91178 | -78.03494 | 35222 ft | 432 kts | 7° |
| 2026-04-28 02:26 | 31.97131 | -78.02456 | 35225 ft | 432 kts | 7° |
| 2026-04-28 02:27 | 32.03084 | -78.01434 | 35227 ft | 432 kts | 7° |
| 2026-04-28 02:27 | 32.09033 | -78.00412 | 35229 ft | 432 kts | 7° |
| 2026-04-28 02:28 | 32.14980 | -77.99389 | 35233 ft | 432 kts | 7° |
| 2026-04-28 02:28 | 32.20919 | -77.98363 | 35231 ft | 431 kts | 8° |
| 2026-04-28 02:29 | 32.26847 | -77.97327 | 35236 ft | 430 kts | 8° |
| 2026-04-28 02:29 | 32.32762 | -77.96294 | 35241 ft | 430 kts | 8° |
| 2026-04-28 02:30 | 32.38649 | -77.95270 | 35243 ft | 430 kts | 8° |
| 2026-04-28 02:30 | 32.44557 | -77.94239 | 35241 ft | 429 kts | 8° |
| 2026-04-28 02:31 | 32.50475 | -77.93209 | 35248 ft | 429 kts | 8° |
| 2026-04-28 02:31 | 32.56380 | -77.92177 | 35252 ft | 429 kts | 8° |
| 2026-04-28 02:32 | 32.62280 | -77.91146 | 35250 ft | 428 kts | 8° |
| 2026-04-28 02:32 | 32.68168 | -77.90115 | 35249 ft | 428 kts | 8° |
| 2026-04-28 02:33 | 32.74056 | -77.89084 | 35255 ft | 427 kts | 8° |
| 2026-04-28 02:33 | 32.79942 | -77.88050 | 35259 ft | 427 kts | 8° |
| 2026-04-28 02:34 | 32.85814 | -77.87025 | 35257 ft | 426 kts | 8° |
| 2026-04-28 02:34 | 32.91675 | -77.85999 | 35264 ft | 426 kts | 8° |
| 2026-04-28 02:35 | 32.97502 | -77.84964 | 35264 ft | 426 kts | 8° |
| 2026-04-28 02:35 | 33.03364 | -77.83918 | 35260 ft | 426 kts | 8° |
| 2026-04-28 02:36 | 33.09226 | -77.82886 | 35265 ft | 426 kts | 8° |
| 2026-04-28 02:36 | 33.15082 | -77.81850 | 35272 ft | 425 kts | 8° |
| 2026-04-28 02:37 | 33.20942 | -77.80804 | 35271 ft | 425 kts | 8° |
| 2026-04-28 02:37 | 33.26789 | -77.79770 | 35272 ft | 425 kts | 7° |
| 2026-04-28 02:38 | 33.32641 | -77.78740 | 35275 ft | 425 kts | 7° |
| 2026-04-28 02:38 | 33.38497 | -77.77701 | 35275 ft | 425 kts | 7° |
| 2026-04-28 02:39 | 33.44336 | -77.76655 | 35279 ft | 425 kts | 7° |
| 2026-04-28 02:39 | 33.50140 | -77.75619 | 35280 ft | 424 kts | 7° |
| 2026-04-28 02:40 | 33.55980 | -77.74568 | 35283 ft | 424 kts | 7° |
| 2026-04-28 02:40 | 33.61816 | -77.73518 | 35284 ft | 424 kts | 7° |
| 2026-04-28 02:41 | 33.67653 | -77.72476 | 35284 ft | 424 kts | 7° |
| 2026-04-28 02:41 | 33.73472 | -77.71325 | 35288 ft | 424 kts | 9° |
| 2026-04-28 02:42 | 33.79269 | -77.70024 | 35289 ft | 424 kts | 9° |
| 2026-04-28 02:42 | 33.85063 | -77.68722 | 35290 ft | 423 kts | 9° |
| 2026-04-28 02:43 | 33.90862 | -77.67450 | 35292 ft | 423 kts | 9° |
| 2026-04-28 02:43 | 33.96618 | -77.66194 | 35292 ft | 423 kts | 9° |
| 2026-04-28 02:44 | 34.02411 | -77.64923 | 35294 ft | 423 kts | 9° |
| 2026-04-28 02:44 | 34.08202 | -77.63654 | 35301 ft | 423 kts | 9° |
| 2026-04-28 02:45 | 34.13993 | -77.62394 | 35303 ft | 423 kts | 9° |
| 2026-04-28 02:45 | 34.19775 | -77.61125 | 35304 ft | 423 kts | 9° |
| 2026-04-28 02:46 | 34.25561 | -77.59848 | 35306 ft | 423 kts | 9° |
| 2026-04-28 02:46 | 34.31351 | -77.58567 | 35306 ft | 422 kts | 9° |
| 2026-04-28 02:47 | 34.37098 | -77.57306 | 35303 ft | 422 kts | 8° |
| 2026-04-28 02:47 | 34.42880 | -77.56032 | 35309 ft | 422 kts | 9° |
| 2026-04-28 02:48 | 34.48660 | -77.54748 | 35316 ft | 422 kts | 9° |
| 2026-04-28 02:48 | 34.54255 | -77.52608 | 35323 ft | 426 kts | 24° |
| 2026-04-28 02:49 | 34.59573 | -77.49427 | 35325 ft | 426 kts | 23° |
| 2026-04-28 02:49 | 34.64891 | -77.46246 | 35331 ft | 426 kts | 24° |
| 2026-04-28 02:50 | 34.70204 | -77.43052 | 35334 ft | 426 kts | 24° |
| 2026-04-28 02:50 | 34.75516 | -77.39858 | 35334 ft | 426 kts | 23° |
| 2026-04-28 02:51 | 34.80831 | -77.36679 | 35333 ft | 426 kts | 23° |
| 2026-04-28 02:51 | 34.86140 | -77.33487 | 35328 ft | 426 kts | 23° |
| 2026-04-28 02:52 | 34.91443 | -77.30281 | 35325 ft | 425 kts | 23° |
| 2026-04-28 02:52 | 34.96712 | -77.27101 | 35334 ft | 425 kts | 23° |
| 2026-04-28 02:53 | 35.02017 | -77.23900 | 35339 ft | 425 kts | 23° |
| 2026-04-28 02:53 | 35.07322 | -77.20689 | 35342 ft | 425 kts | 23° |
| 2026-04-28 02:54 | 35.12619 | -77.17479 | 35342 ft | 425 kts | 23° |
| 2026-04-28 02:54 | 35.17912 | -77.14257 | 35341 ft | 425 kts | 23° |
| 2026-04-28 02:55 | 35.23206 | -77.11039 | 35335 ft | 425 kts | 23° |
| 2026-04-28 02:55 | 35.28499 | -77.07817 | 35335 ft | 425 kts | 23° |
| 2026-04-28 02:56 | 35.33789 | -77.04587 | 35340 ft | 425 kts | 23° |
| 2026-04-28 02:56 | 35.39045 | -77.01379 | 35351 ft | 425 kts | 22° |
| 2026-04-28 02:57 | 35.44335 | -76.98147 | 35353 ft | 425 kts | 22° |
| 2026-04-28 02:57 | 35.49620 | -76.94901 | 35361 ft | 425 kts | 22° |
| 2026-04-28 02:58 | 35.54904 | -76.91658 | 35363 ft | 424 kts | 22° |
| 2026-04-28 02:58 | 35.60191 | -76.88421 | 35359 ft | 424 kts | 22° |
| 2026-04-28 02:59 | 35.65478 | -76.85202 | 35352 ft | 424 kts | 22° |
| 2026-04-28 02:59 | 35.70770 | -76.82000 | 35349 ft | 424 kts | 22° |
| 2026-04-28 03:00 | 35.76056 | -76.78794 | 35336 ft | 423 kts | 22° |
| 2026-04-28 03:00 | 35.81295 | -76.75590 | 35342 ft | 423 kts | 22° |
| 2026-04-28 03:01 | 35.86565 | -76.72365 | 35340 ft | 423 kts | 22° |
| 2026-04-28 03:01 | 35.91825 | -76.69127 | 35348 ft | 423 kts | 22° |
| 2026-04-28 03:02 | 35.96177 | -76.66260 | 35350 ft | 423 kts | 24° |
| 2026-04-28 03:02 | 36.01318 | -76.62720 | 35356 ft | 423 kts | 24° |
| 2026-04-28 03:03 | 36.06436 | -76.59203 | 35358 ft | 423 kts | 24° |
| 2026-04-28 03:03 | 36.11593 | -76.55719 | 35355 ft | 423 kts | 24° |
| 2026-04-28 03:04 | 36.16763 | -76.52235 | 35351 ft | 423 kts | 24° |
| 2026-04-28 03:04 | 36.21923 | -76.48747 | 35346 ft | 422 kts | 24° |
| 2026-04-28 03:05 | 36.27075 | -76.45238 | 35338 ft | 422 kts | 24° |
| 2026-04-28 03:05 | 36.32220 | -76.41731 | 35341 ft | 422 kts | 24° |
| 2026-04-28 03:06 | 36.37369 | -76.38223 | 35339 ft | 422 kts | 24° |
| 2026-04-28 03:06 | 36.42518 | -76.34723 | 35340 ft | 422 kts | 24° |
| 2026-04-28 03:07 | 36.47631 | -76.31238 | 35349 ft | 422 kts | 24° |
| 2026-04-28 03:07 | 36.52770 | -76.27711 | 35352 ft | 422 kts | 24° |
| 2026-04-28 03:08 | 36.57914 | -76.24184 | 35355 ft | 422 kts | 24° |
| 2026-04-28 03:08 | 36.63051 | -76.20658 | 35346 ft | 422 kts | 24° |
| 2026-04-28 03:09 | 36.68184 | -76.17122 | 35346 ft | 421 kts | 24° |
| 2026-04-28 03:09 | 36.73316 | -76.13595 | 35348 ft | 421 kts | 24° |
| 2026-04-28 03:10 | 36.78408 | -76.10091 | 35337 ft | 421 kts | 24° |
| 2026-04-28 03:10 | 36.83528 | -76.06550 | 35337 ft | 421 kts | 24° |
| 2026-04-28 03:11 | 36.88650 | -76.03005 | 35337 ft | 421 kts | 24° |
| 2026-04-28 03:11 | 36.93767 | -75.99457 | 35334 ft | 420 kts | 24° |
| 2026-04-28 03:12 | 36.98881 | -75.95907 | 35331 ft | 420 kts | 24° |
| 2026-04-28 03:12 | 37.03988 | -75.92355 | 35329 ft | 420 kts | 24° |
| 2026-04-28 03:13 | 37.09158 | -75.88972 | 35325 ft | 415 kts | 16° |
| 2026-04-28 03:13 | 37.14645 | -75.86960 | 35323 ft | 411 kts | 11° |
| 2026-04-28 03:14 | 37.20120 | -75.85056 | 35319 ft | 411 kts | 11° |
| 2026-04-28 03:14 | 37.25629 | -75.83137 | 35320 ft | 411 kts | 11° |
| 2026-04-28 03:15 | 37.31139 | -75.81225 | 35324 ft | 411 kts | 11° |
| 2026-04-28 03:15 | 37.36648 | -75.79316 | 35327 ft | 411 kts | 11° |
| 2026-04-28 03:16 | 37.42161 | -75.77396 | 35324 ft | 410 kts | 11° |
| 2026-04-28 03:16 | 37.47661 | -75.75474 | 35322 ft | 410 kts | 11° |
| 2026-04-28 03:17 | 37.53123 | -75.73562 | 35327 ft | 410 kts | 11° |
| 2026-04-28 03:17 | 37.61367 | -75.70683 | 35328 ft | 410 kts | 11° |
| 2026-04-28 03:18 | 37.66860 | -75.68755 | 35331 ft | 410 kts | 11° |
| 2026-04-28 03:18 | 37.72350 | -75.66822 | 35332 ft | 409 kts | 11° |
| 2026-04-28 03:19 | 37.77838 | -75.64887 | 35338 ft | 409 kts | 11° |
| 2026-04-28 03:19 | 37.83301 | -75.62828 | 35341 ft | 413 kts | 17° |
| 2026-04-28 03:20 | 37.88309 | -75.59090 | 35343 ft | 422 kts | 28° |
| 2026-04-28 03:20 | 37.93111 | -75.54905 | 35349 ft | 422 kts | 28° |
| 2026-04-28 03:21 | 37.97946 | -75.50691 | 35345 ft | 422 kts | 28° |
| 2026-04-28 03:21 | 38.02780 | -75.46477 | 35347 ft | 422 kts | 28° |
| 2026-04-28 03:22 | 38.07624 | -75.42302 | 35347 ft | 421 kts | 27° |
| 2026-04-28 03:22 | 38.12541 | -75.38296 | 35344 ft | 419 kts | 26° |
| 2026-04-28 03:23 | 38.17480 | -75.34334 | 35347 ft | 419 kts | 26° |
| 2026-04-28 03:23 | 38.22395 | -75.30338 | 35348 ft | 419 kts | 26° |
| 2026-04-28 03:24 | 38.27493 | -75.26961 | 35347 ft | 409 kts | 15° |
| 2026-04-28 03:24 | 38.32791 | -75.24415 | 35349 ft | 409 kts | 15° |
| 2026-04-28 03:25 | 38.38112 | -75.21834 | 35347 ft | 409 kts | 15° |
| 2026-04-28 03:25 | 38.43432 | -75.19256 | 35348 ft | 409 kts | 15° |
| 2026-04-28 03:26 | 38.48750 | -75.16681 | 35346 ft | 409 kts | 15° |
| 2026-04-28 03:26 | 38.54062 | -75.14098 | 35352 ft | 408 kts | 15° |
| 2026-04-28 03:27 | 38.59366 | -75.11517 | 35353 ft | 408 kts | 15° |
| 2026-04-28 03:27 | 38.64597 | -75.08646 | 35346 ft | 415 kts | 25° |
| 2026-04-28 03:28 | 38.69160 | -75.03919 | 35349 ft | 425 kts | 34° |
| 2026-04-28 03:28 | 38.73547 | -74.98854 | 35356 ft | 425 kts | 34° |
| 2026-04-28 03:29 | 38.77940 | -74.93785 | 35357 ft | 425 kts | 34° |
| 2026-04-28 03:29 | 38.82422 | -74.88894 | 35352 ft | 422 kts | 31° |
| 2026-04-28 03:30 | 38.86985 | -74.84265 | 35355 ft | 420 kts | 30° |
| 2026-04-28 03:30 | 38.91573 | -74.79603 | 35358 ft | 421 kts | 31° |
| 2026-04-28 03:31 | 38.96130 | -74.74881 | 35360 ft | 421 kts | 31° |
| 2026-04-28 03:31 | 39.00663 | -74.70128 | 35361 ft | 421 kts | 31° |
| 2026-04-28 03:32 | 39.05190 | -74.65349 | 35359 ft | 420 kts | 31° |
| 2026-04-28 03:32 | 39.09705 | -74.60582 | 35357 ft | 419 kts | 31° |
| 2026-04-28 03:33 | 39.14210 | -74.55832 | 35352 ft | 418 kts | 31° |
| 2026-04-28 03:33 | 39.18646 | -74.51069 | 35114 ft | 419 kts | 32° |
| 2026-04-28 03:34 | 39.20872 | -74.48640 | 34515 ft | 419 kts | 32° |
| 2026-04-28 03:34 | 39.23087 | -74.46206 | 33877 ft | 419 kts | 32° |
| 2026-04-28 03:34 | 39.25306 | -74.43760 | 33221 ft | 420 kts | 32° |
| 2026-04-28 03:34 | 39.27540 | -74.41306 | 32577 ft | 423 kts | 32° |
| 2026-04-28 03:35 | 39.29792 | -74.38842 | 31949 ft | 426 kts | 32° |
| 2026-04-28 03:35 | 39.32061 | -74.36358 | 31336 ft | 429 kts | 33° |
| 2026-04-28 03:35 | 39.34345 | -74.33852 | 30734 ft | 432 kts | 33° |
| 2026-04-28 03:35 | 39.36643 | -74.31319 | 30100 ft | 436 kts | 33° |
| 2026-04-28 03:36 | 39.38956 | -74.28764 | 29433 ft | 438 kts | 34° |
| 2026-04-28 03:36 | 39.41277 | -74.26196 | 29075 ft | 441 kts | 34° |
| 2026-04-28 03:36 | 39.43611 | -74.23614 | 28698 ft | 441 kts | 34° |
| 2026-04-28 03:36 | 39.45942 | -74.21035 | 28329 ft | 440 kts | 34° |
| 2026-04-28 03:37 | 39.48261 | -74.18457 | 27959 ft | 438 kts | 34° |
| 2026-04-28 03:37 | 39.50567 | -74.15888 | 27598 ft | 436 kts | 34° |
| 2026-04-28 03:37 | 39.52761 | -74.13241 | 27236 ft | 440 kts | 42° |
| 2026-04-28 03:37 | 39.54731 | -74.10197 | 26887 ft | 440 kts | 44° |
| 2026-04-28 03:38 | 39.56677 | -74.07144 | 26533 ft | 438 kts | 44° |
| 2026-04-28 03:38 | 39.58614 | -74.04103 | 26192 ft | 436 kts | 44° |
| 2026-04-28 03:38 | 39.60541 | -74.01076 | 25850 ft | 434 kts | 44° |
| 2026-04-28 03:38 | 39.62458 | -73.98062 | 25510 ft | 432 kts | 45° |
| 2026-04-28 03:39 | 39.64367 | -73.95060 | 25184 ft | 430 kts | 45° |
| 2026-04-28 03:39 | 39.66267 | -73.92074 | 24854 ft | 428 kts | 45° |
| 2026-04-28 03:39 | 39.68158 | -73.89104 | 24529 ft | 426 kts | 45° |
| 2026-04-28 03:39 | 39.70038 | -73.86143 | 24213 ft | 424 kts | 45° |
| 2026-04-28 03:40 | 39.71907 | -73.83197 | 23892 ft | 422 kts | 45° |
| 2026-04-28 03:40 | 39.73767 | -73.80264 | 23517 ft | 419 kts | 45° |
| 2026-04-28 03:40 | 39.75615 | -73.77347 | 23144 ft | 417 kts | 45° |
| 2026-04-28 03:40 | 39.77451 | -73.74446 | 22773 ft | 414 kts | 45° |
| 2026-04-28 03:41 | 39.79271 | -73.71562 | 22403 ft | 411 kts | 46° |
| 2026-04-28 03:41 | 39.81080 | -73.68695 | 22044 ft | 409 kts | 46° |
| 2026-04-28 03:41 | 39.82853 | -73.65884 | 21692 ft | 406 kts | 46° |
| 2026-04-28 03:41 | 39.84639 | -73.63054 | 21339 ft | 403 kts | 46° |
| 2026-04-28 03:42 | 39.86413 | -73.60238 | 20989 ft | 401 kts | 46° |
| 2026-04-28 03:42 | 39.88173 | -73.57435 | 20643 ft | 399 kts | 46° |
| 2026-04-28 03:42 | 39.89934 | -73.54660 | 20299 ft | 395 kts | 44° |
| 2026-04-28 03:42 | 39.91896 | -73.52201 | 19965 ft | 390 kts | 38° |
| 2026-04-28 03:43 | 39.93901 | -73.49837 | 19634 ft | 388 kts | 38° |
| 2026-04-28 03:43 | 39.95896 | -73.47483 | 19304 ft | 386 kts | 38° |
| 2026-04-28 03:43 | 39.97881 | -73.45139 | 18976 ft | 384 kts | 38° |
| 2026-04-28 03:43 | 39.99856 | -73.42804 | 18655 ft | 382 kts | 38° |
| 2026-04-28 03:44 | 40.01821 | -73.40478 | 18291 ft | 381 kts | 38° |
| 2026-04-28 03:44 | 40.03778 | -73.38159 | 17921 ft | 379 kts | 39° |
| 2026-04-28 03:44 | 40.05722 | -73.35849 | 17556 ft | 377 kts | 39° |
| 2026-04-28 03:44 | 40.07656 | -73.33549 | 17197 ft | 375 kts | 39° |
| 2026-04-28 03:45 | 40.09579 | -73.31258 | 16840 ft | 373 kts | 39° |
| 2026-04-28 03:45 | 40.11494 | -73.28979 | 16491 ft | 372 kts | 39° |
| 2026-04-28 03:45 | 40.13398 | -73.26718 | 16141 ft | 370 kts | 39° |
| 2026-04-28 03:45 | 40.15275 | -73.24485 | 15800 ft | 368 kts | 39° |
| 2026-04-28 03:46 | 40.17164 | -73.22238 | 15458 ft | 367 kts | 39° |
| 2026-04-28 03:46 | 40.19048 | -73.19991 | 15119 ft | 365 kts | 39° |
| 2026-04-28 03:46 | 40.20911 | -73.17762 | 14786 ft | 361 kts | 39° |
| 2026-04-28 03:46 | 40.22737 | -73.15571 | 14454 ft | 352 kts | 39° |
| 2026-04-28 03:47 | 40.24519 | -73.13435 | 14123 ft | 343 kts | 39° |
| 2026-04-28 03:47 | 40.26261 | -73.11348 | 13760 ft | 336 kts | 39° |
| 2026-04-28 03:47 | 40.27968 | -73.09305 | 13395 ft | 329 kts | 39° |
| 2026-04-28 03:47 | 40.29641 | -73.07298 | 13033 ft | 323 kts | 39° |
| 2026-04-28 03:48 | 40.31284 | -73.05322 | 12676 ft | 318 kts | 40° |
| 2026-04-28 03:48 | 40.32901 | -73.03378 | 12321 ft | 313 kts | 40° |
| 2026-04-28 03:48 | 40.34496 | -73.01462 | 11972 ft | 309 kts | 40° |
| 2026-04-28 03:48 | 40.36072 | -72.99573 | 11632 ft | 305 kts | 40° |
| 2026-04-28 03:49 | 40.37630 | -72.97706 | 11284 ft | 302 kts | 40° |
| 2026-04-28 03:49 | 40.39154 | -72.95877 | 10949 ft | 299 kts | 40° |
| 2026-04-28 03:49 | 40.40676 | -72.94049 | 10615 ft | 296 kts | 41° |
| 2026-04-28 03:49 | 40.42191 | -72.92230 | 10281 ft | 293 kts | 41° |
| 2026-04-28 03:50 | 40.43684 | -72.90430 | 9925 ft | 291 kts | 41° |
| 2026-04-28 03:50 | 40.45166 | -72.88637 | 9555 ft | 288 kts | 42° |
| 2026-04-28 03:50 | 40.46639 | -72.86856 | 9194 ft | 286 kts | 42° |
| 2026-04-28 03:50 | 40.48095 | -72.85096 | 8838 ft | 283 kts | 42° |
| 2026-04-28 03:51 | 40.49514 | -72.83384 | 8476 ft | 270 kts | 42° |
| 2026-04-28 03:51 | 40.50879 | -72.81762 | 8130 ft | 261 kts | 39° |
| 2026-04-28 03:51 | 40.52408 | -72.80550 | 7782 ft | 258 kts | 24° |
| 2026-04-28 03:51 | 40.54159 | -72.79935 | 7444 ft | 262 kts | 9° |
| 2026-04-28 03:52 | 40.55984 | -72.79879 | 7103 ft | 263 kts | 4° |
| 2026-04-28 03:52 | 40.57813 | -72.79885 | 6763 ft | 262 kts | 5° |
| 2026-04-28 03:52 | 40.59640 | -72.79886 | 6408 ft | 262 kts | 5° |
| 2026-04-28 03:52 | 40.61458 | -72.79884 | 6045 ft | 261 kts | 5° |
| 2026-04-28 03:53 | 40.63272 | -72.79882 | 5690 ft | 260 kts | 5° |
| 2026-04-28 03:53 | 40.65078 | -72.79882 | 5340 ft | 260 kts | 5° |
| 2026-04-28 03:53 | 40.66886 | -72.79878 | 4984 ft | 259 kts | 4° |
| 2026-04-28 03:53 | 40.68690 | -72.79878 | 4620 ft | 259 kts | 4° |
| 2026-04-28 03:54 | 40.70470 | -72.79879 | 4269 ft | 259 kts | 4° |
| 2026-04-28 03:54 | 40.72270 | -72.79879 | 3919 ft | 258 kts | 3° |
| 2026-04-28 03:54 | 40.74068 | -72.79877 | 3566 ft | 258 kts | 3° |
| 2026-04-28 03:54 | 40.75278 | -72.79875 | 3316 ft | 258 kts | 3° |
| 2026-04-28 03:55 | 40.77624 | -72.79872 | 3009 ft | 245 kts | 3° |
| 2026-04-28 03:55 | 40.79241 | -72.79877 | 3011 ft | 219 kts | 3° |
| 2026-04-28 03:55 | 40.80719 | -72.79883 | 3014 ft | 209 kts | 3° |
| 2026-04-28 03:55 | 40.82174 | -72.79885 | 3021 ft | 209 kts | 4° |
| 2026-04-28 03:56 | 40.83133 | -72.79885 | 3019 ft | 208 kts | 4° |
| 2026-04-28 03:56 | 40.85072 | -72.79886 | 3022 ft | 208 kts | 3° |
| 2026-04-28 03:56 | 40.86517 | -72.79885 | 3021 ft | 208 kts | 4° |
| 2026-04-28 03:56 | 40.87971 | -72.79885 | 3021 ft | 209 kts | 3° |
| 2026-04-28 03:57 | 40.89425 | -72.79889 | 3021 ft | 209 kts | 1° |
| 2026-04-28 03:57 | 40.90841 | -72.80350 | 3020 ft | 215 kts | 335° |
| 2026-04-28 03:57 | 40.91654 | -72.81113 | 3020 ft | 219 kts | 318° |
| 2026-04-28 03:57 | 40.92610 | -72.83493 | 3018 ft | 226 kts | 280° |
| 2026-04-28 03:58 | 40.92636 | -72.84873 | 3019 ft | 228 kts | 265° |
| 2026-04-28 03:58 | 40.92480 | -72.86971 | 3020 ft | 229 kts | 265° |
| 2026-04-28 03:58 | 40.92274 | -72.89744 | 3019 ft | 229 kts | 265° |
| 2026-04-28 03:58 | 40.92175 | -72.91124 | 3019 ft | 224 kts | 265° |
| 2026-04-28 03:59 | 40.91785 | -72.93731 | 3014 ft | 214 kts | 244° |
| 2026-04-28 03:59 | 40.91273 | -72.94835 | 3015 ft | 212 kts | 229° |
| 2026-04-28 03:59 | 40.90249 | -72.96230 | 2922 ft | 211 kts | 223° |
| 2026-04-28 03:59 | 40.89224 | -72.97581 | 2721 ft | 205 kts | 223° |
| 2026-04-28 04:00 | 40.88221 | -72.98906 | 2426 ft | 203 kts | 223° |
| 2026-04-28 04:00 | 40.87233 | -73.00211 | 2135 ft | 196 kts | 223° |
| 2026-04-28 04:00 | 40.86313 | -73.01427 | 1893 ft | 175 kts | 223° |
| 2026-04-28 04:00 | 40.85497 | -73.02504 | 1627 ft | 158 kts | 223° |
| 2026-04-28 04:01 | 40.84744 | -73.03504 | 1378 ft | 150 kts | 224° |
| 2026-04-28 04:01 | 40.84009 | -73.04468 | 1186 ft | 147 kts | 223° |
| 2026-04-28 04:01 | 40.83293 | -73.05413 | 1007 ft | 145 kts | 225° |
| 2026-04-28 04:01 | 40.82637 | -73.06285 | 814 ft | 142 kts | 224° |
| 2026-04-28 04:02 | 40.81935 | -73.07191 | 638 ft | 140 kts | 225° |
| 2026-04-28 04:02 | 40.81255 | -73.08103 | 423 ft | 138 kts | 225° |
| 2026-04-28 04:02 | 40.80575 | -73.08996 | 237 ft | 138 kts | 224° |
| 2026-04-28 04:02 | 40.79908 | -73.09876 | 108 ft | 134 kts | 225° |
| 2026-04-28 04:03 | 40.79372 | -73.10578 | 100 ft | 70 kts | 225° |
| 2026-04-28 04:03 | 40.79149 | -73.10870 | 100 ft | 20 kts | 225° |
| 2026-04-28 04:03 | 40.79061 | -73.10952 | 98 ft | 12 kts | 185° |
| 2026-04-28 04:03 | 40.79004 | -73.10890 | 98 ft | 9 kts | 117° |
| 2026-04-28 04:04 | 40.79037 | -73.10813 | 96 ft | 12 kts | 45° |
| 2026-04-28 04:04 | 40.79103 | -73.10725 | 95 ft | 15 kts | 51° |
| 2026-04-28 04:04 | 40.79113 | -73.10627 | 95 ft | 12 kts | 91° |
| 2026-04-28 04:04 | 40.79112 | -73.10501 | 96 ft | 15 kts | 89° |
| 2026-04-28 04:05 | 40.79113 | -73.10361 | 95 ft | 11 kts | 90° |
| 2026-04-28 04:05 | 40.79113 | -73.10248 | 97 ft | 14 kts | 90° |
| 2026-04-28 04:05 | 40.79113 | -73.10148 | 96 ft | 11 kts | 91° |
| 2026-04-28 04:05 | 40.79112 | -73.10087 | 97 ft | 7 kts | 90° |
| 2026-04-28 04:06 | 40.79112 | -73.09987 | 96 ft | 5 kts | 89° |
| 2026-04-28 04:06 | 40.79113 | -73.09984 | 96 ft | 0 kts | 89° |
| 2026-04-28 04:06 | 40.79113 | -73.09980 | 96 ft | 3 kts | 89° |
| 2026-04-28 04:07 | 40.79113 | -73.09907 | 96 ft | 11 kts | 89° |
| 2026-04-28 04:07 | 40.79113 | -73.09812 | 97 ft | 5 kts | 90° |
| 2026-04-28 04:07 | 40.79113 | -73.09803 | 96 ft | 0 kts | 90° |
| 2026-04-28 04:09 | 40.79113 | -73.09789 | 98 ft | 7 kts | 90° |
| 2026-04-28 04:09 | 40.79076 | -73.09728 | 96 ft | 6 kts | 166° |
| 2026-04-28 04:09 | 40.79053 | -73.09729 | 95 ft | 1 kts | 180° |
| 2026-04-28 04:10 | 40.79050 | -73.09729 | 95 ft | 1 kts | 180° |
| 2026-04-28 04:10 | 40.79049 | -73.09729 | 97 ft | 0 kts | 180° |